Terminal Aerodrome Forecast
Issued by NWS

Home | Current Version | Previous Version | Text Only | Print | Product List | Glossary On
Versions: 1 2 3 4 5 6 7 8 9 10 11 12 13 14 15 16 17
246
FTPA31 PHFO 210718 AAA
TAFHOG
TAF AMD
PHOG 210718Z 2107/2206 05010KT P6SM VCSH SCT025 BKN045
     FM212000 05017G25KT P6SM VCSH SCT025 BKN045
     FM220500 05014G20KT P6SM FEW030 SCT060
      AMD LTD TO VIS AND WIND TIL 211600=

USA.gov is the U.S. government's official web portal to all federal, state and local government web resources and services.